Time;durP1;ratioP1;P1;durP2;ratioP2;P2;SDS_P1;SDS_P2;PMS_P1;PMS_P2;Temp;Humidity;BMP_temperature;BMP_pressure;BME280_temperature;BME280_humidity;BME280_pressure;Samples;Min_cycle;Max_cycle;Signal;HPM_P1;HPM_P2
2022/12/12 00:00:24;;;;;;;53.92;24.73;;;0.80;99.90;;;-144.05;73.07;125687.94;5019839;28;20045;-80
2022/12/12 00:02:50;;;;;;;53.53;25.15;;;0.80;99.90;;;-144.05;73.46;125687.94;5019820;28;20037;-80
2022/12/12 00:05:18;;;;;;;64.90;28.00;;;0.80;99.90;;;-144.05;73.15;125687.94;5019846;28;20041;-78
2022/12/12 00:07:44;;;;;;;57.20;26.70;;;0.80;99.90;;;-144.05;73.49;125687.94;5002525;28;20392;-79
2022/12/12 00:10:11;;;;;;;52.92;24.63;;;0.80;99.90;;;-144.05;73.52;125687.94;5019664;28;20449;-78
2022/12/12 00:12:37;;;;;;;60.08;25.55;;;0.80;99.90;;;-144.05;73.26;125687.94;5002450;28;20037;-78
2022/12/12 00:15:04;;;;;;;57.22;25.05;;;0.80;99.90;;;-144.05;73.39;125687.94;5019860;28;20378;-77
2022/12/12 00:17:29;;;;;;;51.88;25.17;;;0.80;99.90;;;-144.05;73.55;125687.94;5001435;28;20034;-79
2022/12/12 00:19:55;;;;;;;57.83;25.98;;;0.80;99.90;;;-144.05;73.43;125687.94;5019590;28;20048;-79
2022/12/12 00:22:21;;;;;;;54.45;24.83;;;0.80;99.90;;;-144.05;73.49;125687.94;5019377;28;20049;-79
2022/12/12 00:24:47;;;;;;;56.45;25.88;;;0.80;99.90;;;-144.05;73.72;125687.94;5019661;28;20095;-79
2022/12/12 00:27:13;;;;;;;63.28;27.05;;;0.80;99.90;;;-144.05;73.16;125687.94;5018589;28;20026;-78
2022/12/12 00:29:38;;;;;;;54.70;26.20;;;0.80;99.90;;;-144.05;73.49;125687.94;5018470;28;20033;-79
2022/12/12 00:32:04;;;;;;;54.97;24.45;;;0.80;99.90;;;-144.05;73.42;125687.94;5018655;28;20124;-78
2022/12/12 00:34:30;;;;;;;58.78;25.30;;;0.80;99.90;;;-144.05;73.65;125687.94;5021995;28;20135;-80
2022/12/12 00:36:56;;;;;;;59.80;25.85;;;0.80;99.90;;;-144.05;73.54;125687.94;5026794;28;20033;-79
2022/12/12 00:39:22;;;;;;;59.88;26.15;;;0.80;99.90;;;-144.05;73.79;125687.94;5026233;28;20132;-80
2022/12/12 00:41:48;;;;;;;60.65;27.17;;;0.80;99.90;;;-144.05;73.85;125687.94;5026112;28;20026;-78
2022/12/12 00:44:16;;;;;;;57.15;24.52;;;0.80;99.90;;;-144.05;73.87;125687.94;5027501;28;20153;-79
2022/12/12 00:46:42;;;;;;;52.30;23.98;;;0.80;99.90;;;-144.05;73.88;125687.94;5027224;28;20035;-78
2022/12/12 00:49:08;;;;;;;53.83;23.80;;;0.80;99.90;;;-144.05;74.16;125687.94;5027655;28;20466;-78
2022/12/12 00:51:34;;;;;;;54.22;24.70;;;0.80;99.90;;;-144.05;74.04;125687.94;5028401;28;20052;-80
2022/12/12 00:54:00;;;;;;;53.45;24.48;;;0.80;99.90;;;-144.05;74.13;125687.94;5027613;28;20065;-78
2022/12/12 00:56:28;;;;;;;56.28;26.35;;;0.80;99.90;;;-144.05;74.31;125687.94;5024101;28;20478;-80
2022/12/12 00:58:54;;;;;;;54.50;25.92;;;0.80;99.90;;;-144.05;74.37;125687.94;5020816;28;20505;-79
2022/12/12 01:01:30;;;;;;;55.30;25.00;;;0.80;99.90;;;-144.05;74.25;125687.94;5021285;28;20026;-81
2022/12/12 01:03:57;;;;;;;55.70;24.25;;;0.80;99.90;;;-144.05;74.38;125687.94;5020957;28;20061;-80
2022/12/12 01:06:24;;;;;;;52.60;23.98;;;0.70;99.90;;;-144.05;74.28;125687.94;5021361;28;20030;-80
2022/12/12 01:08:52;;;;;;;51.55;24.52;;;0.80;99.90;;;-144.05;74.39;125687.94;5021749;28;20405;-79
2022/12/12 01:11:19;;;;;;;57.47;25.33;;;0.70;99.90;;;-144.05;74.29;125687.94;5003922;28;20180;-79
2022/12/12 01:13:49;;;;;;;52.15;23.83;;;0.70;99.90;;;-144.05;74.46;125687.94;5021574;28;20074;-81
2022/12/12 01:16:15;;;;;;;57.20;24.75;;;0.70;99.90;;;-144.05;74.37;125687.94;5003576;28;20077;-80
2022/12/12 01:18:42;;;;;;;51.92;23.83;;;0.70;99.90;;;-144.05;74.64;125687.94;5021206;28;20049;-79
2022/12/12 01:21:14;;;;;;;50.65;22.63;;;0.70;99.90;;;-144.05;74.42;125687.94;5021163;28;20167;-79
2022/12/12 01:23:41;;;;;;;52.28;24.33;;;0.70;99.90;;;-144.05;74.68;125687.94;5003889;28;20504;-80
2022/12/12 01:26:22;;;;;;;51.50;24.13;;;0.70;99.90;;;-144.05;74.42;125687.94;5020304;28;20045;-79
2022/12/12 01:28:49;;;;;;;51.92;23.23;;;0.70;99.90;;;-144.05;74.69;125687.94;5020542;28;20038;-78
2022/12/12 01:31:16;;;;;;;52.78;24.75;;;0.70;99.90;;;-144.05;74.59;125687.94;5019179;28;20117;-80
2022/12/12 01:33:45;;;;;;;49.08;24.33;;;0.70;99.90;;;-144.05;74.68;125687.94;5002251;28;20044;-79
2022/12/12 01:36:19;;;;;;;50.42;22.23;;;0.70;99.90;;;-144.05;74.65;125687.94;5020320;28;20060;-79
2022/12/12 01:38:50;;;;;;;48.58;22.67;;;0.70;99.90;;;-144.05;74.73;125687.94;5028132;28;20033;-80
2022/12/12 01:41:17;;;;;;;46.58;22.13;;;0.70;99.90;;;-144.05;74.73;125687.94;5012095;28;20076;-79
2022/12/12 01:43:44;;;;;;;43.92;20.83;;;0.70;99.90;;;-144.05;74.66;125687.94;5002147;28;20116;-79
2022/12/12 01:46:40;;;;;;;48.67;23.90;;;0.70;99.90;;;-144.05;74.69;125687.94;5002787;28;20052;-79
2022/12/12 01:49:23;;;;;;;50.95;21.75;;;0.70;99.90;;;-144.05;74.71;125687.94;5020335;28;20033;-79
2022/12/12 01:51:59;;;;;;;53.60;24.77;;;0.60;99.90;;;-144.05;74.73;125687.94;5044373;22;20037;-78
2022/12/12 01:54:45;;;;;;;52.47;23.17;;;0.60;99.90;;;-144.05;75.02;125687.94;4994457;28;20121;-82
2022/12/12 01:57:29;;;;;;;45.28;21.25;;;0.70;99.90;;;-144.05;74.81;125687.94;4995185;28;20029;-80
2022/12/12 01:59:58;;;;;;;47.35;22.67;;;0.70;99.90;;;-144.05;74.84;125687.94;5012198;28;20053;-81
2022/12/12 02:02:25;;;;;;;51.85;21.25;;;0.70;99.90;;;-144.05;75.15;125687.94;5012323;28;20041;-84
2022/12/12 02:04:51;;;;;;;50.42;23.48;;;0.70;99.90;;;-144.05;75.13;125687.94;5012204;28;20109;-83
2022/12/12 02:07:17;;;;;;;47.65;21.40;;;0.60;99.90;;;-144.05;75.08;125687.94;5012274;28;20203;-80
2022/12/12 02:09:47;;;;;;;44.53;22.08;;;0.70;99.90;;;-144.05;75.21;125687.94;4994555;28;20034;-80
2022/12/12 02:12:14;;;;;;;51.60;22.73;;;0.70;99.90;;;-144.05;74.95;125687.94;5012120;28;20089;-81
2022/12/12 02:14:47;;;;;;;51.60;22.45;;;0.60;99.90;;;-144.05;75.08;125687.94;4994591;28;20084;-83
2022/12/12 02:17:50;;;;;;;50.08;23.27;;;0.60;99.90;;;-144.05;75.33;125687.94;5019320;28;20409;-83
2022/12/12 02:21:01;;;;;;;45.35;21.85;;;0.70;99.90;;;-144.05;75.30;125687.94;5020827;28;20041;-83
2022/12/12 02:24:15;;;;;;;49.28;21.80;;;0.70;99.90;;;-144.05;74.97;125687.94;5021161;28;20021;-82
2022/12/12 02:27:59;;;;;;;44.15;21.85;;;0.70;99.90;;;-144.05;75.06;125687.94;4989623;28;20061;-84
2022/12/12 02:30:52;;;;;;;63.10;26.73;;;0.60;99.90;;;-144.05;75.49;125687.94;5002731;28;20072;-84
2022/12/12 02:33:46;;;;;;;62.00;28.13;;;0.60;99.90;;;-144.05;75.08;125687.94;5022915;28;20045;-85
2022/12/12 02:36:35;;;;;;;58.45;26.25;;;0.60;99.90;;;-144.05;74.86;125687.94;5000458;28;20180;-83
2022/12/12 02:39:32;;;;;;;61.45;27.42;;;0.70;99.90;;;-144.05;74.97;125687.94;5020731;28;20169;-83
2022/12/12 02:42:24;;;;;;;58.17;25.98;;;0.70;99.90;;;-144.05;74.93;125687.94;4999407;28;20037;-82
2022/12/12 02:45:10;;;;;;;59.60;26.85;;;0.70;99.90;;;-144.05;74.64;125687.94;5022132;28;20029;-83
2022/12/12 02:47:50;;;;;;;64.85;27.02;;;0.70;99.90;;;-144.05;74.53;125687.94;5016249;28;20106;-81
2022/12/12 02:50:26;;;;;;;62.20;27.35;;;0.70;99.90;;;-144.05;74.75;125687.94;5004490;28;20099;-82
2022/12/12 02:52:52;;;;;;;59.70;27.35;;;0.70;99.90;;;-144.05;74.96;125687.94;5017176;28;20030;-85
2022/12/12 02:55:19;;;;;;;58.47;25.77;;;0.70;99.90;;;-144.05;74.97;125687.94;4998780;28;20057;-85
2022/12/12 02:57:47;;;;;;;54.50;25.08;;;0.70;99.90;;;-144.05;74.90;125687.94;5019094;28;20025;-81
2022/12/12 03:00:22;;;;;;;60.28;25.70;;;0.70;99.90;;;-144.05;75.17;125687.94;5006592;28;20030;-84
2022/12/12 03:10:02;;;;;;;51.10;23.00;;;0.70;99.90;;;-144.05;75.27;125687.94;5020237;28;19956;-82
2022/12/12 03:12:47;;;;;;;61.72;24.63;;;0.70;99.90;;;-144.05;75.18;125687.94;5021540;28;20018;-85
2022/12/12 03:15:25;;;;;;;53.80;26.27;;;0.70;99.90;;;-144.05;75.28;125687.94;4999405;28;20039;-83
2022/12/12 03:18:13;;;;;;;56.70;24.15;;;0.70;99.90;;;-144.05;75.46;125687.94;5019572;28;20029;-84
2022/12/12 03:21:03;;;;;;;51.83;25.05;;;0.70;99.90;;;-144.05;75.30;125687.94;5020443;28;20022;-82
2022/12/12 03:23:46;;;;;;;54.58;25.45;;;0.70;99.90;;;-144.05;75.31;125687.94;5022451;28;20037;-82
2022/12/12 03:26:43;;;;;;;49.80;23.92;;;0.70;99.90;;;-144.05;75.48;125687.94;5004667;28;20022;-84
2022/12/12 03:29:21;;;;;;;54.72;24.02;;;0.70;99.90;;;-144.05;75.17;125687.94;5015493;28;20021;-85
2022/12/12 03:31:59;;;;;;;49.05;23.42;;;0.70;99.90;;;-144.05;75.58;125687.94;5026450;28;20482;-85
2022/12/12 03:34:41;;;;;;;55.53;26.23;;;0.70;99.90;;;-144.05;75.25;125687.94;5021525;28;20139;-83
2022/12/12 03:37:16;;;;;;;48.92;22.90;;;0.70;99.90;;;-144.05;75.31;125687.94;5024977;28;20477;-86
2022/12/12 03:40:10;;;;;;;50.20;23.80;;;0.70;99.90;;;-144.05;75.30;125687.94;5024661;28;20080;-81
2022/12/12 03:42:51;;;;;;;51.30;24.17;;;0.70;99.90;;;-144.05;75.16;125687.94;5024921;28;20034;-83
2022/12/12 03:45:58;;;;;;;51.25;24.15;;;0.70;99.90;;;-144.05;75.14;125687.94;5002774;28;20037;-85
2022/12/12 03:48:36;;;;;;;48.17;25.42;;;0.70;99.90;;;-144.05;74.86;125687.94;4956857;28;20108;-83
2022/12/12 03:51:15;;;;;;;55.03;24.13;;;0.70;99.90;;;-144.05;74.83;125687.94;5020833;28;20041;-83
2022/12/12 03:54:22;;;;;;;75.25;33.17;;;0.70;99.90;;;-144.05;74.82;125687.94;5022401;28;20034;-82
2022/12/12 03:57:15;;;;;;;111.82;46.72;;;0.80;99.90;;;-144.05;74.90;125687.94;4970750;28;20046;-83
2022/12/12 04:00:10;;;;;;;63.60;28.42;;;0.80;99.90;;;-144.05;74.58;125687.94;5023618;28;20096;-84
2022/12/12 04:03:07;;;;;;;113.82;57.35;;;0.80;99.90;;;-144.05;74.99;125687.94;5008026;28;20036;-83
2022/12/12 04:16:01;;;;;;;59.25;27.10;;;0.80;99.90;;;-144.05;74.04;125687.94;5019409;28;20033;-84
2022/12/12 04:18:57;;;;;;;54.85;24.48;;;0.80;99.90;;;-144.05;73.69;125687.94;4992910;28;20038;-85
2022/12/12 04:24:56;;;;;;;55.42;24.50;;;0.80;99.90;;;-144.05;73.96;125687.94;5016947;28;20045;-84
2022/12/12 04:27:44;;;;;;;51.47;24.80;;;0.90;99.90;;;-144.05;73.92;125687.94;5024187;28;20034;-84
2022/12/12 04:30:14;;;;;;;52.47;24.85;;;0.80;99.90;;;-144.05;73.55;125687.94;5023356;28;20109;-84
2022/12/12 04:33:10;;;;;;;53.65;26.70;;;0.90;99.90;;;-144.05;73.21;125687.94;4998491;28;20128;-85
2022/12/12 04:35:49;;;;;;;53.50;23.83;;;0.90;99.90;;;-144.05;72.72;125687.94;5004280;28;20044;-82
2022/12/12 04:38:22;;;;;;;49.92;23.13;;;1.00;99.90;;;-144.05;72.93;125687.94;5018928;28;20038;-82
2022/12/12 04:40:58;;;;;;;49.60;24.65;;;0.90;99.90;;;-144.05;73.38;125687.94;5020502;28;20165;-81
2022/12/12 04:43:33;;;;;;;44.88;22.23;;;0.90;99.90;;;-144.05;73.23;125687.94;5022290;28;20037;-84
2022/12/12 04:46:12;;;;;;;43.35;23.52;;;0.90;99.90;;;-144.05;73.60;125687.94;5001723;28;20034;-83
2022/12/12 04:48:50;;;;;;;48.15;23.98;;;0.90;99.90;;;-144.05;73.75;125687.94;5002944;28;20030;-82
2022/12/12 04:51:41;;;;;;;48.25;23.60;;;0.90;99.90;;;-144.05;73.57;125687.94;5025980;28;20036;-85
2022/12/12 04:54:31;;;;;;;50.22;23.27;;;0.90;99.90;;;-144.05;73.74;125687.94;5021741;28;20060;-82
2022/12/12 04:57:06;;;;;;;43.58;21.08;;;0.90;99.90;;;-144.05;73.76;125687.94;5017020;28;20118;-84
2022/12/12 04:59:33;;;;;;;45.20;22.85;;;0.90;99.90;;;-144.05;74.12;125687.94;5021343;28;20086;-83
2022/12/12 05:02:31;;;;;;;48.28;22.98;;;0.90;99.90;;;-144.05;73.80;125687.94;5021263;28;20045;-83
2022/12/12 05:05:14;;;;;;;56.35;22.33;;;0.90;99.90;;;-144.05;73.99;125687.94;5020525;28;20120;-84
2022/12/12 05:07:49;;;;;;;59.08;26.27;;;0.90;99.90;;;-144.05;73.94;125687.94;5004724;28;20082;-83
2022/12/12 05:10:17;;;;;;;49.22;23.45;;;0.80;99.90;;;-144.05;74.06;125687.94;5002412;28;20033;-83
2022/12/12 05:12:56;;;;;;;59.50;25.15;;;0.90;99.90;;;-144.05;73.88;125687.94;5000041;28;20044;-84
2022/12/12 05:15:23;;;;;;;56.38;25.33;;;0.90;99.90;;;-144.05;73.84;125687.94;5022200;28;20056;-82
2022/12/12 05:18:06;;;;;;;54.53;23.63;;;0.90;99.90;;;-144.05;73.69;125687.94;5027671;28;20026;-84
2022/12/12 05:20:32;;;;;;;57.00;24.35;;;0.90;99.90;;;-144.05;73.52;125687.94;5022963;28;20065;-82
2022/12/12 05:22:58;;;;;;;60.33;25.90;;;0.80;99.90;;;-144.05;73.55;125687.94;5000926;28;20036;-78
2022/12/12 05:25:24;;;;;;;59.38;25.98;;;0.90;99.90;;;-144.05;73.36;125687.94;5017572;28;20037;-80
2022/12/12 05:27:50;;;;;;;60.00;25.10;;;0.80;99.90;;;-144.05;73.58;125687.94;5018274;28;20030;-79
2022/12/12 05:30:16;;;;;;;56.17;24.58;;;0.80;99.90;;;-144.05;73.58;125687.94;4998873;28;20026;-79
2022/12/12 05:32:42;;;;;;;54.40;25.77;;;0.80;99.90;;;-144.05;73.25;125687.94;5020116;28;20036;-81
2022/12/12 05:35:09;;;;;;;58.20;23.60;;;0.80;99.90;;;-144.05;72.54;125687.94;5016107;28;20437;-79
2022/12/12 05:37:37;;;;;;;56.45;25.13;;;0.80;99.90;;;-144.05;72.44;125687.94;5017578;28;20458;-81
2022/12/12 05:40:07;;;;;;;62.63;24.25;;;0.80;99.90;;;-144.05;72.21;125687.94;5006497;28;20033;-81
2022/12/12 05:42:34;;;;;;;47.40;22.63;;;0.70;99.90;;;-144.05;71.85;125687.94;5019721;28;20481;-78
2022/12/12 05:44:59;;;;;;;50.65;24.13;;;0.70;99.90;;;-144.05;72.28;125687.94;5003545;28;20434;-81
2022/12/12 05:47:25;;;;;;;52.33;23.60;;;0.60;99.90;;;-144.05;72.43;125687.94;5018675;28;20081;-81
2022/12/12 05:49:51;;;;;;;53.13;24.50;;;0.60;99.90;;;-144.05;72.77;125687.94;5014691;28;20409;-79
2022/12/12 05:52:17;;;;;;;53.50;24.33;;;0.50;99.90;;;-144.05;72.80;125687.94;4998782;28;20038;-79
2022/12/12 05:54:43;;;;;;;53.17;22.80;;;0.50;99.90;;;-144.05;72.87;125687.94;5015174;28;20473;-81
2022/12/12 05:57:09;;;;;;;51.60;23.00;;;0.50;99.90;;;-144.05;73.00;125687.94;5015525;28;20474;-78
2022/12/12 05:59:35;;;;;;;53.53;23.63;;;0.50;99.90;;;-144.05;73.21;125687.94;5020213;28;20037;-79
2022/12/12 06:02:01;;;;;;;52.30;24.77;;;0.50;99.90;;;-144.05;73.07;125687.94;5018623;28;20075;-81
2022/12/12 06:04:27;;;;;;;54.53;23.00;;;0.50;99.90;;;-144.05;73.29;125687.94;5016503;28;20029;-79
2022/12/12 06:06:53;;;;;;;55.25;24.75;;;0.50;99.90;;;-144.05;73.10;125687.94;5017469;28;20029;-81
2022/12/12 06:09:19;;;;;;;50.88;22.33;;;0.60;99.90;;;-144.05;73.17;125687.94;4998802;28;20057;-82
2022/12/12 06:11:45;;;;;;;52.45;23.33;;;0.50;99.90;;;-144.05;73.13;125687.94;5001779;28;20531;-82
2022/12/12 06:14:10;;;;;;;52.35;24.25;;;0.60;99.90;;;-144.05;73.03;125687.94;5022485;28;20033;-81
2022/12/12 06:16:36;;;;;;;45.22;19.27;;;0.60;99.90;;;-144.05;73.10;125687.94;5004385;28;20160;-82
2022/12/12 06:19:03;;;;;;;50.70;22.88;;;0.60;99.90;;;-144.05;73.11;125687.94;5021040;28;20097;-81
2022/12/12 06:21:29;;;;;;;51.50;22.10;;;0.60;99.90;;;-144.05;73.37;125687.94;5021413;28;20401;-82
2022/12/12 06:23:55;;;;;;;54.05;21.48;;;0.60;99.90;;;-144.05;73.32;125687.94;5004242;28;20054;-82
2022/12/12 06:26:21;;;;;;;55.28;24.05;;;0.60;99.90;;;-144.05;73.03;125687.94;5005827;28;20037;-84
2022/12/12 06:28:48;;;;;;;54.78;23.92;;;0.60;99.90;;;-144.05;73.06;125687.94;5019942;28;20040;-84
2022/12/12 06:31:14;;;;;;;51.22;23.63;;;0.60;99.90;;;-144.05;73.32;125687.94;5003158;28;20034;-81
2022/12/12 06:33:42;;;;;;;50.28;21.83;;;0.60;99.90;;;-144.05;73.12;125687.94;5015736;28;20033;-82
2022/12/12 06:36:15;;;;;;;50.00;24.35;;;0.60;99.90;;;-144.05;73.18;125687.94;5018331;28;20034;-84
2022/12/12 06:38:41;;;;;;;52.15;23.08;;;0.50;99.90;;;-144.05;73.10;125687.94;5019785;28;20033;-83
2022/12/12 06:41:13;;;;;;;57.50;22.75;;;0.60;99.90;;;-144.05;73.14;125687.94;5021467;28;20026;-82
2022/12/12 06:43:41;;;;;;;54.17;22.48;;;0.60;99.90;;;-144.05;73.13;125687.94;5019057;28;20393;-80
2022/12/12 06:46:15;;;;;;;53.35;23.42;;;0.50;99.90;;;-144.05;73.12;125687.94;5019895;28;20060;-81
2022/12/12 06:48:42;;;;;;;47.63;21.60;;;0.50;99.90;;;-144.05;73.01;125687.94;4998994;28;20101;-82
2022/12/12 06:51:13;;;;;;;54.47;24.00;;;0.50;99.90;;;-144.05;73.25;125687.94;5003416;28;20038;-81
2022/12/12 06:53:39;;;;;;;51.35;23.65;;;0.50;99.90;;;-144.05;73.42;125687.94;4999597;28;20058;-82
2022/12/12 06:56:15;;;;;;;48.10;21.83;;;0.50;99.90;;;-144.05;73.17;125687.94;4998079;28;20065;-79
2022/12/12 06:58:42;;;;;;;53.92;22.63;;;0.50;99.90;;;-144.05;73.29;125687.94;4997308;28;20037;-81
2022/12/12 07:01:11;;;;;;;49.60;22.23;;;0.50;99.90;;;-144.05;73.46;125687.94;5018216;28;20397;-80
2022/12/12 07:03:37;;;;;;;58.42;23.88;;;0.50;99.90;;;-144.05;73.31;125687.94;4996728;28;20029;-77
2022/12/12 07:06:04;;;;;;;45.78;22.02;;;0.50;99.90;;;-144.05;73.10;125687.94;5002359;28;20068;-82
2022/12/12 07:08:30;;;;;;;52.42;22.40;;;0.50;99.90;;;-144.05;73.37;125687.94;5000276;28;20038;-79
2022/12/12 07:11:04;;;;;;;55.08;23.42;;;0.50;99.90;;;-144.05;73.47;125687.94;5001094;28;20508;-80
2022/12/12 07:13:30;;;;;;;57.85;23.08;;;0.50;99.90;;;-144.05;73.15;125687.94;5016881;28;20044;-78
2022/12/12 07:15:56;;;;;;;50.10;22.10;;;0.50;99.90;;;-144.05;73.13;125687.94;5018920;28;20037;-75
2022/12/12 07:18:21;;;;;;;49.75;21.65;;;0.50;99.90;;;-144.05;73.06;125687.94;5017948;28;20104;-76
2022/12/12 07:20:47;;;;;;;51.17;21.30;;;0.50;99.90;;;-144.05;73.02;125687.94;5017096;28;20030;-75
2022/12/12 07:23:14;;;;;;;48.28;21.20;;;0.50;99.90;;;-144.05;73.20;125687.94;5017849;28;20073;-74
2022/12/12 07:25:43;;;;;;;58.35;23.98;;;0.50;99.90;;;-144.05;72.89;125687.94;5017611;28;20025;-78
2022/12/12 07:28:13;;;;;;;51.38;22.70;;;0.50;99.90;;;-144.05;72.80;125687.94;4999469;28;20321;-80
2022/12/12 07:30:46;;;;;;;51.20;22.02;;;0.50;99.90;;;-144.05;72.98;125687.94;5017497;28;20113;-78
2022/12/12 07:33:15;;;;;;;54.17;22.20;;;0.50;99.90;;;-144.05;73.10;125687.94;4999126;28;20041;-77
2022/12/12 07:35:43;;;;;;;54.47;23.17;;;0.50;99.90;;;-144.05;72.63;125687.94;5017475;28;20029;-81
2022/12/12 07:38:11;;;;;;;46.00;21.73;;;0.50;99.90;;;-144.05;72.90;125687.94;4999838;28;20030;-77
2022/12/12 07:40:37;;;;;;;49.85;22.55;;;0.50;99.90;;;-144.05;72.91;125687.94;5017721;28;20026;-80
2022/12/12 07:43:03;;;;;;;52.42;21.60;;;0.50;99.90;;;-144.05;72.81;125687.94;5007819;28;20034;-77
2022/12/12 07:45:30;;;;;;;52.67;22.00;;;0.50;99.90;;;-144.05;72.98;125687.94;5027872;28;20030;-77
2022/12/12 07:47:56;;;;;;;50.63;22.58;;;0.50;99.90;;;-144.05;72.99;125687.94;5025804;28;20032;-77
2022/12/12 07:50:22;;;;;;;49.72;24.13;;;0.40;99.90;;;-144.05;73.28;125687.94;5017286;28;20041;-76
2022/12/12 07:52:48;;;;;;;57.63;23.73;;;0.40;99.90;;;-144.05;73.07;125687.94;5041101;23;20041;-83
2022/12/12 07:55:15;;;;;;;53.42;22.45;;;0.40;99.90;;;-144.05;73.28;125687.94;5041834;28;20052;-84
2022/12/12 07:57:41;;;;;;;49.53;21.27;;;0.40;99.90;;;-144.05;73.19;125687.94;5039547;28;20117;-84
2022/12/12 08:00:12;;;;;;;53.60;22.80;;;0.40;99.90;;;-144.05;73.04;125687.94;5039204;28;20494;-84
2022/12/12 08:02:38;;;;;;;51.95;23.77;;;0.40;99.90;;;-144.05;73.23;125687.94;5019705;28;20108;-85
2022/12/12 08:05:14;;;;;;;57.58;23.60;;;0.40;99.90;;;-144.05;73.23;125687.94;5036588;28;20029;-86
2022/12/12 08:07:39;;;;;;;55.58;25.17;;;0.40;99.90;;;-144.05;73.52;125687.94;5035161;28;20032;-85
2022/12/12 08:10:06;;;;;;;55.63;24.98;;;0.40;99.90;;;-144.05;73.66;125687.94;5018639;28;20063;-85
2022/12/12 08:12:32;;;;;;;58.88;24.77;;;0.30;99.90;;;-144.05;73.61;125687.94;5035328;28;20025;-86
2022/12/12 08:14:58;;;;;;;59.28;24.83;;;0.30;99.90;;;-144.05;73.40;125687.94;5018611;28;20370;-84
2022/12/12 08:17:24;;;;;;;59.85;24.95;;;0.20;99.90;;;-144.05;73.72;125687.94;5036511;28;20036;-85
2022/12/12 08:19:59;;;;;;;61.85;25.35;;;0.20;99.90;;;-144.05;73.75;125687.94;5036415;28;20072;-85
2022/12/12 08:22:25;;;;;;;53.10;23.00;;;0.10;99.90;;;-144.05;73.69;125687.94;5018903;28;20022;-86
2022/12/12 08:24:51;;;;;;;50.95;24.10;;;0.20;99.90;;;-144.05;74.12;125687.94;5036664;28;20364;-85
2022/12/12 08:27:26;;;;;;;57.08;24.40;;;0.20;99.90;;;-144.05;73.99;125687.94;5019220;28;20084;-86
2022/12/12 08:29:53;;;;;;;51.95;24.90;;;0.30;99.90;;;-144.05;73.72;125687.94;5037550;28;20043;-85
2022/12/12 08:32:19;;;;;;;55.05;24.13;;;0.40;99.90;;;-144.05;73.30;125687.94;5052398;28;20053;-85
2022/12/12 08:34:46;;;;;;;50.60;22.80;;;0.50;99.90;;;-144.05;73.38;125687.94;5045564;28;20041;-82
2022/12/12 08:37:13;;;;;;;61.72;24.70;;;0.60;99.90;;;-144.05;72.71;125687.94;5041626;28;20037;-84
2022/12/12 08:39:39;;;;;;;49.50;22.63;;;0.60;99.90;;;-144.05;72.93;125687.94;5021463;28;20061;-84
2022/12/12 08:42:05;;;;;;;47.60;21.98;;;0.60;99.90;;;-144.05;72.73;125687.94;5019336;28;20033;-86
2022/12/12 08:44:31;;;;;;;51.80;22.83;;;0.60;99.90;;;-144.05;72.82;125687.94;5037605;28;20037;-86
2022/12/12 08:46:57;;;;;;;51.30;22.60;;;0.70;99.90;;;-144.05;72.66;125687.94;5039265;28;20508;-86
2022/12/12 08:49:23;;;;;;;46.58;22.13;;;0.70;99.90;;;-144.05;72.39;125687.94;5034849;28;20091;-85
2022/12/12 08:51:50;;;;;;;50.53;23.05;;;0.70;99.90;;;-144.05;72.53;125687.94;5018051;28;20397;-86
2022/12/12 08:54:16;;;;;;;47.53;22.70;;;0.70;99.90;;;-144.05;72.26;125687.94;5035509;28;20059;-86
2022/12/12 08:56:42;;;;;;;53.50;22.67;;;0.70;99.90;;;-144.05;72.39;125687.94;5034329;28;20496;-86
2022/12/12 08:59:08;;;;;;;46.00;21.50;;;0.70;99.90;;;-144.05;72.22;125687.94;5035895;28;20038;-84
2022/12/12 09:01:35;;;;;;;47.60;22.58;;;0.70;99.90;;;-144.05;72.24;125687.94;5036050;28;20036;-84
2022/12/12 09:04:01;;;;;;;51.75;23.90;;;0.70;99.90;;;-144.05;71.87;125687.94;5034201;28;20025;-85
2022/12/12 09:06:27;;;;;;;51.05;25.52;;;0.80;99.90;;;-144.05;71.61;125687.94;5034879;28;20033;-84
2022/12/12 09:08:56;;;;;;;41.38;20.73;;;0.80;99.90;;;-144.05;71.61;125687.94;5035203;28;20140;-84
2022/12/12 09:11:22;;;;;;;49.88;22.05;;;0.80;99.90;;;-144.05;71.60;125687.94;5034496;28;20030;-85
2022/12/12 09:13:49;;;;;;;49.60;24.00;;;0.90;99.90;;;-144.05;71.60;125687.94;5035205;28;20071;-83
2022/12/12 09:16:15;;;;;;;45.63;21.67;;;1.00;99.90;;;-144.05;71.55;125687.94;5036038;28;20481;-85
2022/12/12 09:18:42;;;;;;;46.08;21.95;;;1.00;99.90;;;-144.05;71.13;125687.94;5034369;28;20545;-86
2022/12/12 09:21:08;;;;;;;48.00;22.10;;;1.10;99.90;;;-144.05;70.98;125687.94;5018244;28;20033;-87
2022/12/12 09:23:33;;;;;;;43.60;21.33;;;1.10;99.90;;;-144.05;70.84;125687.94;5035986;28;20056;-86
2022/12/12 09:26:10;;;;;;;44.85;21.42;;;1.10;99.90;;;-144.05;70.66;125687.94;5017825;28;20033;-86
2022/12/12 09:28:36;;;;;;;49.33;22.23;;;1.20;99.90;;;-144.05;70.41;125687.94;5017359;28;20037;-86
2022/12/12 09:31:09;;;;;;;43.13;21.60;;;1.20;99.90;;;-144.05;70.27;125687.94;5018569;28;20065;-84
2022/12/12 09:33:37;;;;;;;47.28;23.15;;;1.20;99.90;;;-144.05;70.25;125687.94;5036203;28;20072;-85
2022/12/12 09:36:07;;;;;;;42.75;22.58;;;1.20;99.90;;;-144.05;70.10;125687.94;5018279;28;20037;-84
2022/12/12 09:38:34;;;;;;;47.13;22.75;;;1.20;99.90;;;-144.05;70.12;125687.94;5034368;28;20110;-85
2022/12/12 09:41:22;;;;;;;50.78;22.92;;;1.10;99.90;;;-144.05;69.83;125687.94;5035449;28;20423;-86
2022/12/12 09:44:10;;;;;;;51.58;22.48;;;1.10;99.90;;;-144.05;69.82;125687.94;5025196;28;20105;-85
2022/12/12 09:46:46;;;;;;;46.20;23.40;;;1.20;99.90;;;-144.05;69.60;125687.94;5042356;28;20030;-83
2022/12/12 09:49:38;;;;;;;48.67;23.30;;;1.30;99.90;;;-144.05;69.26;125687.94;5040993;28;20050;-84
2022/12/12 09:52:09;;;;;;;46.58;23.38;;;1.40;99.90;;;-144.05;68.08;125687.94;5043086;28;20033;-84
2022/12/12 09:54:35;;;;;;;45.55;22.92;;;1.40;99.90;;;-144.05;68.02;125687.94;5042399;28;20044;-81
2022/12/12 09:57:10;;;;;;;44.75;21.85;;;1.50;99.90;;;-144.05;67.74;125687.94;5036811;28;20033;-86
2022/12/12 10:00:11;;;;;;;34.67;18.48;;;1.80;99.90;;;-144.05;66.44;125687.94;5035923;28;20068;-86
2022/12/12 10:03:07;;;;;;;41.35;21.63;;;2.00;99.90;;;-144.05;65.24;125687.94;5037196;28;20040;-85
2022/12/12 10:06:06;;;;;;;49.50;21.55;;;2.10;99.90;;;-144.05;64.15;125687.94;5037364;28;20408;-83
2022/12/12 10:08:49;;;;;;;44.70;22.33;;;2.40;99.90;;;-144.05;63.70;125687.94;5036786;28;20116;-82
2022/12/12 10:11:49;;;;;;;45.58;20.45;;;2.50;99.90;;;-144.05;62.75;125687.94;5036641;28;20083;-85
2022/12/12 10:14:45;;;;;;;44.03;21.15;;;2.60;99.90;;;-144.05;62.89;125687.94;5037499;28;20469;-84
2022/12/12 10:17:44;;;;;;;42.15;21.13;;;2.60;99.90;;;-144.05;62.84;125687.94;5035320;28;20073;-83
2022/12/12 10:20:24;;;;;;;43.22;20.65;;;2.60;99.90;;;-144.05;61.97;125687.94;5017334;28;20053;-86
2022/12/12 10:23:29;;;;;;;48.90;22.02;;;2.60;99.90;;;-144.05;62.65;125687.94;5037115;28;20072;-86
2022/12/12 10:26:12;;;;;;;48.33;22.65;;;2.40;99.90;;;-144.05;62.88;125687.94;5036113;28;20033;-86
2022/12/12 10:28:38;;;;;;;44.58;22.30;;;2.40;99.90;;;-144.05;62.53;125687.94;5038337;28;20018;-86
2022/12/12 10:31:39;;;;;;;43.53;22.92;;;2.20;99.90;;;-144.05;63.13;125687.94;5039165;28;20045;-87
2022/12/12 10:35:09;;;;;;;44.10;21.30;;;2.20;99.90;;;-144.05;62.97;125687.94;5054410;28;20062;-81
2022/12/12 10:38:32;;;;;;;41.72;21.48;;;2.30;99.90;;;-144.05;63.53;125687.94;5034704;28;20050;-84
2022/12/12 10:41:14;;;;;;;41.20;21.35;;;2.60;99.90;;;-144.05;61.18;125687.94;5042311;28;20111;-84